Kittila, Suomi

10. joulukuuta 2018 klo 00:30 (EET) (GMT +0200)
Kittila | | Change Station

Kork 643 ft 67.70 °N, 24.86 °E | Updated 1 hour ago

Täysin pilvistä
Täysin pilvistä
27 °F
Tuntuu kuin 21 °F
N
5
Tuuli Suunnaltaan vaihteleva Tuuli ilmansuunnasta Koillinen

Tänään
Korkea -- | Matala -- °F
--% Sateen mahd.
Eilen
Korkea -- | Matala -- °F
Precip. -- tuumaa
Ilmanpaine 29.36 tuumaa
Näkyvyys 3.1 mailia
Pilviä Täysin pilvistä 700 ft
Tuulen hyytävyys 21 °F
Kastepiste 27 °F
Ilmankosteus 100%
Sademäärä 0.00 tuumaa
Lumensyvyys Ei saatavilla
11:35 AM 12:50 PM
Kasvava sirppi, 7% visible
METAR EFKT 092120Z AUTO 05004KT 020V080 5000 -SN OVC007 M03/M03 Q0994
Ilmanpaine 29.36 tuumaa
Näkyvyys 3.1 mailia
Pilviä Täysin pilvistä 700 ft
Tuulen hyytävyys 21 °F
Kastepiste 27 °F
Ilmankosteus 100%
Sademäärä 0.00 tuumaa
Lumensyvyys Ei saatavilla
11:35 AM 12:50 PM
Kasvava sirppi, 7% visible
METAR EFKT 092120Z AUTO 05004KT 020V080 5000 -SN OVC007 M03/M03 Q0994

Get Severe Weather Alerts

Thanks for signing up!

Be on the lookout for a verification email in your inbox.

You'll start receiving the daily forecast at 6 AM.

×

10-Day Weather Forecast

×

Almanac

Tähtitiede

Dec. 10, 2018 Nousuaika Laskuaika
Valoisa aika
Porvarillinen hämärä
Nauttinen hämärä
Astronominen hämärä
Kuu
Näkyvän valon pituus
Päivän pituus
Tomorrow will be .
, % of the Moon is Illuminated

Tämän päivän ennätykset

Country Highs Country Lows

Community

WunderPhotos

Category 6

Welcome to Category 6. This is the collective home for Weather Underground's featured writeups by Dr. Jeff Masters (right), Bob Henson (left), Chris Burt, and other regular contributors.

Nearby

Ilmanlaatu

  Ilmanlaatu AQ Index Pollutant
Not available.

Lumensyvyys

Station Depth Korkeus

Maanjäristysaktiivisuus

Paikkakunta Distance Mag. Time & Date
Minimum magnitude displayed is 2.5.

Coastal Water Temperatures

Paikka Lämpötila

Stations

Lähimmät sääasemat

Aseman sijainti Lämpötila Tuulen hyytävyys Kastepiste Ilmankosteus Tuuli Precip. Kork Päivitetty Tyyppi